sensor_id;sensor_type;location;lat;lon;timestamp;P1;durP1;ratioP1;P2;durP2;ratioP2
52948;SDS011;38812;50.942;3.644;2023-07-28T00:00:27;2.13;;;1.67;;
52948;SDS011;38812;50.942;3.644;2023-07-28T00:02:52;1.92;;;1.73;;
52948;SDS011;38812;50.942;3.644;2023-07-28T00:05:18;5.47;;;2.17;;
52948;SDS011;38812;50.942;3.644;2023-07-28T00:07:43;2.60;;;2.03;;
52948;SDS011;38812;50.942;3.644;2023-07-28T00:10:08;2.42;;;2.22;;
52948;SDS011;38812;50.942;3.644;2023-07-28T00:12:34;6.80;;;2.28;;
52948;SDS011;38812;50.942;3.644;2023-07-28T00:15:00;4.22;;;2.50;;
52948;SDS011;38812;50.942;3.644;2023-07-28T00:17:25;2.58;;;2.38;;
52948;SDS011;38812;50.942;3.644;2023-07-28T00:19:51;5.60;;;2.40;;
52948;SDS011;38812;50.942;3.644;2023-07-28T00:22:16;7.35;;;2.67;;
52948;SDS011;38812;50.942;3.644;2023-07-28T00:24:41;2.90;;;2.28;;
52948;SDS011;38812;50.942;3.644;2023-07-28T00:27:07;3.72;;;2.50;;
52948;SDS011;38812;50.942;3.644;2023-07-28T00:29:32;4.28;;;2.17;;
52948;SDS011;38812;50.942;3.644;2023-07-28T00:31:57;3.50;;;2.15;;
52948;SDS011;38812;50.942;3.644;2023-07-28T00:34:23;4.55;;;2.42;;
52948;SDS011;38812;50.942;3.644;2023-07-28T00:36:48;7.93;;;2.53;;
52948;SDS011;38812;50.942;3.644;2023-07-28T00:39:14;3.72;;;2.30;;
52948;SDS011;38812;50.942;3.644;2023-07-28T00:41:39;5.32;;;2.33;;
52948;SDS011;38812;50.942;3.644;2023-07-28T00:44:04;3.97;;;2.45;;
52948;SDS011;38812;50.942;3.644;2023-07-28T00:46:30;2.28;;;2.08;;
52948;SDS011;38812;50.942;3.644;2023-07-28T00:48:56;3.53;;;2.20;;
52948;SDS011;38812;50.942;3.644;2023-07-28T00:51:21;3.40;;;2.08;;
52948;SDS011;38812;50.942;3.644;2023-07-28T00:53:47;3.97;;;2.55;;
52948;SDS011;38812;50.942;3.644;2023-07-28T00:56:13;2.90;;;2.53;;
52948;SDS011;38812;50.942;3.644;2023-07-28T00:58:39;5.57;;;2.50;;
52948;SDS011;38812;50.942;3.644;2023-07-28T01:01:04;5.60;;;2.17;;
52948;SDS011;38812;50.942;3.644;2023-07-28T01:03:30;5.88;;;2.20;;
52948;SDS011;38812;50.942;3.644;2023-07-28T01:08:48;6.47;;;2.10;;
52948;SDS011;38812;50.942;3.644;2023-07-28T01:11:21;2.50;;;2.20;;
52948;SDS011;38812;50.942;3.644;2023-07-28T01:13:46;3.08;;;1.83;;
52948;SDS011;38812;50.942;3.644;2023-07-28T01:16:12;3.95;;;2.17;;
52948;SDS011;38812;50.942;3.644;2023-07-28T01:18:37;2.33;;;1.92;;
52948;SDS011;38812;50.942;3.644;2023-07-28T01:21:03;1.85;;;1.75;;
52948;SDS011;38812;50.942;3.644;2023-07-28T01:23:37;2.20;;;1.95;;
52948;SDS011;38812;50.942;3.644;2023-07-28T01:26:33;3.75;;;2.00;;
52948;SDS011;38812;50.942;3.644;2023-07-28T01:29:00;3.03;;;1.50;;
52948;SDS011;38812;50.942;3.644;2023-07-28T01:31:28;3.55;;;1.80;;
52948;SDS011;38812;50.942;3.644;2023-07-28T01:33:54;7.32;;;2.13;;
52948;SDS011;38812;50.942;3.644;2023-07-28T01:36:19;6.45;;;1.95;;
52948;SDS011;38812;50.942;3.644;2023-07-28T01:38:44;5.25;;;1.67;;
52948;SDS011;38812;50.942;3.644;2023-07-28T01:41:10;6.07;;;2.28;;
52948;SDS011;38812;50.942;3.644;2023-07-28T01:43:35;2.55;;;1.90;;
52948;SDS011;38812;50.942;3.644;2023-07-28T01:46:01;8.48;;;2.58;;
52948;SDS011;38812;50.942;3.644;2023-07-28T01:48:26;2.78;;;1.90;;
52948;SDS011;38812;50.942;3.644;2023-07-28T01:50:52;2.97;;;1.85;;
52948;SDS011;38812;50.942;3.644;2023-07-28T01:53:17;5.57;;;2.55;;
52948;SDS011;38812;50.942;3.644;2023-07-28T01:55:42;2.70;;;2.15;;
52948;SDS011;38812;50.942;3.644;2023-07-28T01:58:08;5.75;;;2.20;;
52948;SDS011;38812;50.942;3.644;2023-07-28T02:00:34;4.97;;;1.83;;
52948;SDS011;38812;50.942;3.644;2023-07-28T02:03:00;4.55;;;2.08;;
52948;SDS011;38812;50.942;3.644;2023-07-28T02:05:26;3.05;;;2.03;;
52948;SDS011;38812;50.942;3.644;2023-07-28T02:07:52;3.95;;;2.30;;
52948;SDS011;38812;50.942;3.644;2023-07-28T02:10:17;6.22;;;1.90;;
52948;SDS011;38812;50.942;3.644;2023-07-28T02:12:43;4.07;;;2.00;;
52948;SDS011;38812;50.942;3.644;2023-07-28T02:15:08;1.88;;;1.75;;
52948;SDS011;38812;50.942;3.644;2023-07-28T02:17:34;3.88;;;1.80;;
52948;SDS011;38812;50.942;3.644;2023-07-28T02:19:59;5.18;;;1.88;;
52948;SDS011;38812;50.942;3.644;2023-07-28T02:22:26;4.78;;;1.80;;
52948;SDS011;38812;50.942;3.644;2023-07-28T02:24:51;4.85;;;1.80;;
52948;SDS011;38812;50.942;3.644;2023-07-28T02:27:17;6.70;;;2.38;;
52948;SDS011;38812;50.942;3.644;2023-07-28T02:29:42;3.97;;;2.33;;
52948;SDS011;38812;50.942;3.644;2023-07-28T02:32:07;5.43;;;2.45;;
52948;SDS011;38812;50.942;3.644;2023-07-28T02:34:33;3.58;;;2.72;;
52948;SDS011;38812;50.942;3.644;2023-07-28T02:36:59;7.30;;;2.22;;
52948;SDS011;38812;50.942;3.644;2023-07-28T02:39:24;5.10;;;2.65;;
52948;SDS011;38812;50.942;3.644;2023-07-28T02:41:50;2.80;;;2.60;;
52948;SDS011;38812;50.942;3.644;2023-07-28T02:44:15;2.55;;;2.30;;
52948;SDS011;38812;50.942;3.644;2023-07-28T02:46:41;5.00;;;2.47;;
52948;SDS011;38812;50.942;3.644;2023-07-28T02:49:06;6.03;;;2.67;;
52948;SDS011;38812;50.942;3.644;2023-07-28T02:51:31;5.32;;;2.10;;
52948;SDS011;38812;50.942;3.644;2023-07-28T02:53:59;2.33;;;2.13;;
52948;SDS011;38812;50.942;3.644;2023-07-28T02:56:24;2.25;;;2.00;;
52948;SDS011;38812;50.942;3.644;2023-07-28T02:58:50;2.45;;;1.83;;
52948;SDS011;38812;50.942;3.644;2023-07-28T03:01:15;4.57;;;2.40;;
52948;SDS011;38812;50.942;3.644;2023-07-28T03:03:41;3.75;;;2.30;;
52948;SDS011;38812;50.942;3.644;2023-07-28T03:06:06;2.70;;;2.33;;
52948;SDS011;38812;50.942;3.644;2023-07-28T03:08:31;2.53;;;2.33;;
52948;SDS011;38812;50.942;3.644;2023-07-28T03:10:57;4.68;;;2.25;;
52948;SDS011;38812;50.942;3.644;2023-07-28T03:13:23;3.00;;;2.00;;
52948;SDS011;38812;50.942;3.644;2023-07-28T03:15:49;2.60;;;2.38;;
52948;SDS011;38812;50.942;3.644;2023-07-28T03:18:14;4.63;;;1.90;;
52948;SDS011;38812;50.942;3.644;2023-07-28T03:20:39;5.57;;;1.73;;
52948;SDS011;38812;50.942;3.644;2023-07-28T03:23:05;2.38;;;1.55;;
52948;SDS011;38812;50.942;3.644;2023-07-28T03:25:30;4.25;;;1.70;;
52948;SDS011;38812;50.942;3.644;2023-07-28T03:27:55;2.42;;;1.65;;
52948;SDS011;38812;50.942;3.644;2023-07-28T03:30:21;1.83;;;1.27;;
52948;SDS011;38812;50.942;3.644;2023-07-28T03:32:46;4.45;;;1.50;;
52948;SDS011;38812;50.942;3.644;2023-07-28T03:35:12;1.50;;;1.40;;
52948;SDS011;38812;50.942;3.644;2023-07-28T03:37:38;4.78;;;1.45;;
52948;SDS011;38812;50.942;3.644;2023-07-28T03:40:03;1.83;;;1.30;;
52948;SDS011;38812;50.942;3.644;2023-07-28T03:42:29;1.33;;;1.23;;
52948;SDS011;38812;50.942;3.644;2023-07-28T03:44:55;2.17;;;1.35;;
52948;SDS011;38812;50.942;3.644;2023-07-28T03:47:20;2.10;;;1.38;;
52948;SDS011;38812;50.942;3.644;2023-07-28T03:49:46;3.53;;;1.27;;
52948;SDS011;38812;50.942;3.644;2023-07-28T03:52:11;1.40;;;1.30;;
52948;SDS011;38812;50.942;3.644;2023-07-28T03:54:36;1.88;;;1.48;;
52948;SDS011;38812;50.942;3.644;2023-07-28T03:57:02;2.08;;;1.40;;
52948;SDS011;38812;50.942;3.644;2023-07-28T03:59:27;3.60;;;1.10;;
52948;SDS011;38812;50.942;3.644;2023-07-28T04:01:53;1.13;;;1.13;;
52948;SDS011;38812;50.942;3.644;2023-07-28T04:04:18;7.10;;;1.27;;
52948;SDS011;38812;50.942;3.644;2023-07-28T04:06:45;1.23;;;1.13;;
52948;SDS011;38812;50.942;3.644;2023-07-28T04:09:13;1.85;;;1.27;;
52948;SDS011;38812;50.942;3.644;2023-07-28T04:11:40;1.95;;;1.33;;
52948;SDS011;38812;50.942;3.644;2023-07-28T04:14:06;7.72;;;1.70;;
52948;SDS011;38812;50.942;3.644;2023-07-28T04:16:31;7.85;;;1.73;;
52948;SDS011;38812;50.942;3.644;2023-07-28T04:18:57;1.45;;;1.35;;
52948;SDS011;38812;50.942;3.644;2023-07-28T04:21:23;3.28;;;1.60;;
52948;SDS011;38812;50.942;3.644;2023-07-28T04:23:49;6.22;;;1.52;;
52948;SDS011;38812;50.942;3.644;2023-07-28T04:26:14;7.32;;;1.70;;
52948;SDS011;38812;50.942;3.644;2023-07-28T04:28:40;2.30;;;1.70;;
52948;SDS011;38812;50.942;3.644;2023-07-28T04:31:06;1.92;;;1.63;;
52948;SDS011;38812;50.942;3.644;2023-07-28T04:33:31;5.90;;;1.85;;
52948;SDS011;38812;50.942;3.644;2023-07-28T04:35:57;6.00;;;1.75;;
52948;SDS011;38812;50.942;3.644;2023-07-28T04:38:22;1.77;;;1.48;;
52948;SDS011;38812;50.942;3.644;2023-07-28T04:40:47;6.97;;;1.67;;
52948;SDS011;38812;50.942;3.644;2023-07-28T04:43:13;1.20;;;1.10;;
52948;SDS011;38812;50.942;3.644;2023-07-28T04:45:38;1.40;;;1.13;;
52948;SDS011;38812;50.942;3.644;2023-07-28T04:48:03;3.22;;;1.23;;
52948;SDS011;38812;50.942;3.644;2023-07-28T04:50:29;1.63;;;1.35;;
52948;SDS011;38812;50.942;3.644;2023-07-28T04:52:54;1.90;;;1.30;;
52948;SDS011;38812;50.942;3.644;2023-07-28T04:55:20;1.38;;;1.25;;
52948;SDS011;38812;50.942;3.644;2023-07-28T04:57:46;4.28;;;1.40;;
52948;SDS011;38812;50.942;3.644;2023-07-28T05:00:11;2.20;;;1.27;;
52948;SDS011;38812;50.942;3.644;2023-07-28T05:02:37;1.77;;;1.33;;
52948;SDS011;38812;50.942;3.644;2023-07-28T05:05:03;3.90;;;1.55;;
52948;SDS011;38812;50.942;3.644;2023-07-28T05:07:28;1.38;;;1.27;;
52948;SDS011;38812;50.942;3.644;2023-07-28T05:09:54;1.30;;;1.20;;
52948;SDS011;38812;50.942;3.644;2023-07-28T05:12:19;2.95;;;1.63;;
52948;SDS011;38812;50.942;3.644;2023-07-28T05:14:45;6.85;;;1.38;;
52948;SDS011;38812;50.942;3.644;2023-07-28T05:17:11;2.60;;;1.13;;
52948;SDS011;38812;50.942;3.644;2023-07-28T05:19:36;1.77;;;1.30;;
52948;SDS011;38812;50.942;3.644;2023-07-28T05:22:02;2.78;;;1.30;;
52948;SDS011;38812;50.942;3.644;2023-07-28T05:24:27;5.28;;;1.13;;
52948;SDS011;38812;50.942;3.644;2023-07-28T05:26:53;3.20;;;1.20;;
52948;SDS011;38812;50.942;3.644;2023-07-28T05:29:18;4.57;;;1.35;;
52948;SDS011;38812;50.942;3.644;2023-07-28T05:31:44;1.00;;;1.00;;
52948;SDS011;38812;50.942;3.644;2023-07-28T05:34:10;3.47;;;1.15;;
52948;SDS011;38812;50.942;3.644;2023-07-28T05:36:37;2.95;;;0.98;;
52948;SDS011;38812;50.942;3.644;2023-07-28T05:39:02;4.32;;;1.55;;
52948;SDS011;38812;50.942;3.644;2023-07-28T05:41:28;4.65;;;1.42;;
52948;SDS011;38812;50.942;3.644;2023-07-28T05:43:53;1.50;;;1.35;;
52948;SDS011;38812;50.942;3.644;2023-07-28T05:46:18;1.50;;;1.40;;
52948;SDS011;38812;50.942;3.644;2023-07-28T05:48:44;1.90;;;1.33;;
52948;SDS011;38812;50.942;3.644;2023-07-28T05:51:09;4.28;;;1.60;;
52948;SDS011;38812;50.942;3.644;2023-07-28T05:53:35;2.80;;;1.98;;
52948;SDS011;38812;50.942;3.644;2023-07-28T05:56:00;1.63;;;1.50;;
52948;SDS011;38812;50.942;3.644;2023-07-28T05:58:25;1.75;;;1.30;;
52948;SDS011;38812;50.942;3.644;2023-07-28T06:00:51;3.53;;;1.25;;
52948;SDS011;38812;50.942;3.644;2023-07-28T06:03:16;2.75;;;1.83;;
52948;SDS011;38812;50.942;3.644;2023-07-28T06:05:42;6.10;;;1.67;;
52948;SDS011;38812;50.942;3.644;2023-07-28T06:08:07;4.38;;;1.60;;
52948;SDS011;38812;50.942;3.644;2023-07-28T06:10:33;3.03;;;1.65;;
52948;SDS011;38812;50.942;3.644;2023-07-28T06:13:00;2.45;;;1.38;;
52948;SDS011;38812;50.942;3.644;2023-07-28T06:15:25;4.30;;;1.63;;
52948;SDS011;38812;50.942;3.644;2023-07-28T06:17:51;3.10;;;1.77;;
52948;SDS011;38812;50.942;3.644;2023-07-28T06:20:17;2.60;;;1.52;;
52948;SDS011;38812;50.942;3.644;2023-07-28T06:22:43;2.95;;;1.65;;
52948;SDS011;38812;50.942;3.644;2023-07-28T06:25:08;5.72;;;2.00;;
52948;SDS011;38812;50.942;3.644;2023-07-28T06:27:33;12.38;;;1.80;;
52948;SDS011;38812;50.942;3.644;2023-07-28T06:29:59;4.38;;;1.83;;
52948;SDS011;38812;50.942;3.644;2023-07-28T06:32:25;2.15;;;1.70;;
52948;SDS011;38812;50.942;3.644;2023-07-28T06:34:52;2.20;;;1.80;;
52948;SDS011;38812;50.942;3.644;2023-07-28T06:37:18;4.55;;;1.95;;
52948;SDS011;38812;50.942;3.644;2023-07-28T06:39:43;4.30;;;1.90;;
52948;SDS011;38812;50.942;3.644;2023-07-28T06:42:10;5.75;;;1.95;;
52948;SDS011;38812;50.942;3.644;2023-07-28T06:44:36;5.68;;;1.92;;
52948;SDS011;38812;50.942;3.644;2023-07-28T06:47:02;3.65;;;1.52;;
52948;SDS011;38812;50.942;3.644;2023-07-28T06:49:28;3.95;;;1.65;;
52948;SDS011;38812;50.942;3.644;2023-07-28T06:51:53;4.00;;;2.40;;
52948;SDS011;38812;50.942;3.644;2023-07-28T06:54:22;10.27;;;2.13;;
52948;SDS011;38812;50.942;3.644;2023-07-28T06:56:47;8.00;;;2.08;;
52948;SDS011;38812;50.942;3.644;2023-07-28T06:59:12;3.35;;;1.80;;
52948;SDS011;38812;50.942;3.644;2023-07-28T07:01:38;4.20;;;1.98;;
52948;SDS011;38812;50.942;3.644;2023-07-28T07:04:03;6.43;;;1.95;;
52948;SDS011;38812;50.942;3.644;2023-07-28T07:06:30;2.28;;;1.63;;
52948;SDS011;38812;50.942;3.644;2023-07-28T07:08:56;4.68;;;2.25;;
52948;SDS011;38812;50.942;3.644;2023-07-28T07:11:22;6.45;;;2.65;;
52948;SDS011;38812;50.942;3.644;2023-07-28T07:13:47;8.63;;;4.93;;
52948;SDS011;38812;50.942;3.644;2023-07-28T07:16:14;5.00;;;2.13;;
52948;SDS011;38812;50.942;3.644;2023-07-28T07:18:41;5.82;;;2.00;;
52948;SDS011;38812;50.942;3.644;2023-07-28T07:21:07;6.00;;;1.67;;
52948;SDS011;38812;50.942;3.644;2023-07-28T07:23:32;3.15;;;1.70;;
52948;SDS011;38812;50.942;3.644;2023-07-28T07:25:58;8.65;;;2.00;;
52948;SDS011;38812;50.942;3.644;2023-07-28T07:28:23;3.42;;;2.53;;
52948;SDS011;38812;50.942;3.644;2023-07-28T07:30:48;3.28;;;1.80;;
52948;SDS011;38812;50.942;3.644;2023-07-28T07:33:14;4.25;;;1.95;;
52948;SDS011;38812;50.942;3.644;2023-07-28T07:35:39;3.42;;;2.03;;
52948;SDS011;38812;50.942;3.644;2023-07-28T07:38:05;3.88;;;1.80;;
52948;SDS011;38812;50.942;3.644;2023-07-28T07:40:34;3.47;;;2.08;;
52948;SDS011;38812;50.942;3.644;2023-07-28T07:43:00;3.90;;;2.00;;
52948;SDS011;38812;50.942;3.644;2023-07-28T07:45:25;2.80;;;1.40;;
52948;SDS011;38812;50.942;3.644;2023-07-28T07:47:51;3.38;;;1.67;;
52948;SDS011;38812;50.942;3.644;2023-07-28T07:50:16;7.10;;;1.80;;
52948;SDS011;38812;50.942;3.644;2023-07-28T07:52:41;1.95;;;1.60;;
52948;SDS011;38812;50.942;3.644;2023-07-28T07:55:08;4.40;;;1.70;;
52948;SDS011;38812;50.942;3.644;2023-07-28T07:57:36;2.83;;;1.55;;
52948;SDS011;38812;50.942;3.644;2023-07-28T08:00:01;5.30;;;1.90;;
52948;SDS011;38812;50.942;3.644;2023-07-28T08:02:27;2.00;;;1.25;;
52948;SDS011;38812;50.942;3.644;2023-07-28T08:04:52;2.75;;;1.95;;
52948;SDS011;38812;50.942;3.644;2023-07-28T08:07:20;1.63;;;1.50;;
52948;SDS011;38812;50.942;3.644;2023-07-28T08:09:46;4.88;;;1.77;;
52948;SDS011;38812;50.942;3.644;2023-07-28T08:12:12;5.63;;;1.92;;
52948;SDS011;38812;50.942;3.644;2023-07-28T08:14:39;3.47;;;2.00;;
52948;SDS011;38812;50.942;3.644;2023-07-28T08:17:05;4.07;;;2.05;;
52948;SDS011;38812;50.942;3.644;2023-07-28T08:19:30;3.40;;;2.03;;
52948;SDS011;38812;50.942;3.644;2023-07-28T08:21:55;2.53;;;1.60;;
52948;SDS011;38812;50.942;3.644;2023-07-28T08:24:21;2.65;;;2.17;;
52948;SDS011;38812;50.942;3.644;2023-07-28T08:26:46;2.30;;;1.55;;
52948;SDS011;38812;50.942;3.644;2023-07-28T08:29:12;5.05;;;2.08;;
52948;SDS011;38812;50.942;3.644;2023-07-28T08:31:37;3.97;;;2.30;;
52948;SDS011;38812;50.942;3.644;2023-07-28T08:34:02;3.42;;;2.13;;
52948;SDS011;38812;50.942;3.644;2023-07-28T08:36:28;5.13;;;2.22;;
52948;SDS011;38812;50.942;3.644;2023-07-28T08:38:54;2.53;;;1.65;;
52948;SDS011;38812;50.942;3.644;2023-07-28T08:41:19;7.07;;;2.08;;
52948;SDS011;38812;50.942;3.644;2023-07-28T08:43:45;4.57;;;1.88;;
52948;SDS011;38812;50.942;3.644;2023-07-28T08:46:11;4.18;;;2.55;;
52948;SDS011;38812;50.942;3.644;2023-07-28T08:48:36;5.82;;;2.00;;
52948;SDS011;38812;50.942;3.644;2023-07-28T08:51:02;3.95;;;1.75;;
52948;SDS011;38812;50.942;3.644;2023-07-28T08:53:29;6.50;;;2.22;;
52948;SDS011;38812;50.942;3.644;2023-07-28T08:55:55;7.28;;;1.95;;
52948;SDS011;38812;50.942;3.644;2023-07-28T08:58:21;3.28;;;2.10;;
52948;SDS011;38812;50.942;3.644;2023-07-28T09:00:48;2.47;;;1.67;;
52948;SDS011;38812;50.942;3.644;2023-07-28T09:03:15;2.40;;;1.70;;
52948;SDS011;38812;50.942;3.644;2023-07-28T09:05:44;4.10;;;1.60;;
52948;SDS011;38812;50.942;3.644;2023-07-28T09:08:13;4.15;;;1.60;;
52948;SDS011;38812;50.942;3.644;2023-07-28T09:10:42;5.25;;;1.98;;
52948;SDS011;38812;50.942;3.644;2023-07-28T09:13:14;3.45;;;2.17;;
52948;SDS011;38812;50.942;3.644;2023-07-28T09:15:40;8.38;;;3.10;;
52948;SDS011;38812;50.942;3.644;2023-07-28T09:18:09;6.70;;;1.73;;
52948;SDS011;38812;50.942;3.644;2023-07-28T09:20:40;2.58;;;1.80;;
52948;SDS011;38812;50.942;3.644;2023-07-28T09:23:06;4.35;;;2.10;;
52948;SDS011;38812;50.942;3.644;2023-07-28T09:25:34;2.90;;;1.70;;
52948;SDS011;38812;50.942;3.644;2023-07-28T09:28:00;2.95;;;1.40;;
52948;SDS011;38812;50.942;3.644;2023-07-28T09:30:26;2.10;;;1.40;;
52948;SDS011;38812;50.942;3.644;2023-07-28T09:32:53;1.05;;;1.00;;
52948;SDS011;38812;50.942;3.644;2023-07-28T09:35:20;3.90;;;1.15;;
52948;SDS011;38812;50.942;3.644;2023-07-28T09:37:47;3.20;;;1.33;;
52948;SDS011;38812;50.942;3.644;2023-07-28T09:40:15;3.65;;;1.20;;
52948;SDS011;38812;50.942;3.644;2023-07-28T09:42:42;2.28;;;0.90;;
52948;SDS011;38812;50.942;3.644;2023-07-28T09:45:15;3.47;;;1.02;;
52948;SDS011;38812;50.942;3.644;2023-07-28T09:47:44;2.58;;;0.73;;
52948;SDS011;38812;50.942;3.644;2023-07-28T09:50:11;9.82;;;1.00;;
52948;SDS011;38812;50.942;3.644;2023-07-28T09:52:43;6.03;;;0.98;;
52948;SDS011;38812;50.942;3.644;2023-07-28T09:55:11;0.83;;;0.60;;
52948;SDS011;38812;50.942;3.644;2023-07-28T09:57:39;1.67;;;1.58;;
52948;SDS011;38812;50.942;3.644;2023-07-28T10:00:10;1.80;;;0.80;;
52948;SDS011;38812;50.942;3.644;2023-07-28T10:02:37;1.20;;;0.68;;
52948;SDS011;38812;50.942;3.644;2023-07-28T10:05:04;1.92;;;0.90;;
52948;SDS011;38812;50.942;3.644;2023-07-28T10:07:32;2.30;;;1.00;;
52948;SDS011;38812;50.942;3.644;2023-07-28T10:10:03;1.15;;;1.00;;
52948;SDS011;38812;50.942;3.644;2023-07-28T10:12:33;1.67;;;0.90;;
52948;SDS011;38812;50.942;3.644;2023-07-28T10:15:29;1.38;;;0.80;;
52948;SDS011;38812;50.942;3.644;2023-07-28T10:17:56;1.17;;;0.80;;
52948;SDS011;38812;50.942;3.644;2023-07-28T10:23:07;4.20;;;0.85;;
52948;SDS011;38812;50.942;3.644;2023-07-28T10:25:37;0.70;;;0.70;;
52948;SDS011;38812;50.942;3.644;2023-07-28T10:28:05;1.30;;;0.80;;
52948;SDS011;38812;50.942;3.644;2023-07-28T10:30:50;2.70;;;1.02;;
52948;SDS011;38812;50.942;3.644;2023-07-28T10:33:27;0.95;;;0.73;;
52948;SDS011;38812;50.942;3.644;2023-07-28T10:35:54;2.22;;;1.52;;
52948;SDS011;38812;50.942;3.644;2023-07-28T10:38:29;3.30;;;1.30;;
52948;SDS011;38812;50.942;3.644;2023-07-28T10:41:06;1.00;;;0.90;;
52948;SDS011;38812;50.942;3.644;2023-07-28T10:43:33;1.63;;;0.82;;
52948;SDS011;38812;50.942;3.644;2023-07-28T10:45:59;2.10;;;0.93;;
52948;SDS011;38812;50.942;3.644;2023-07-28T10:48:25;2.35;;;1.00;;
52948;SDS011;38812;50.942;3.644;2023-07-28T10:50:50;2.22;;;1.02;;
52948;SDS011;38812;50.942;3.644;2023-07-28T10:53:16;4.65;;;1.02;;
52948;SDS011;38812;50.942;3.644;2023-07-28T10:55:42;2.40;;;1.10;;
52948;SDS011;38812;50.942;3.644;2023-07-28T10:58:07;4.13;;;0.90;;
52948;SDS011;38812;50.942;3.644;2023-07-28T11:00:33;2.38;;;1.15;;
52948;SDS011;38812;50.942;3.644;2023-07-28T11:02:58;2.72;;;1.05;;
52948;SDS011;38812;50.942;3.644;2023-07-28T11:05:25;2.13;;;1.17;;
52948;SDS011;38812;50.942;3.644;2023-07-28T11:07:55;2.30;;;1.17;;
52948;SDS011;38812;50.942;3.644;2023-07-28T11:10:25;7.20;;;1.58;;
52948;SDS011;38812;50.942;3.644;2023-07-28T11:12:53;1.02;;;0.90;;
52948;SDS011;38812;50.942;3.644;2023-07-28T11:15:19;2.13;;;1.35;;
52948;SDS011;38812;50.942;3.644;2023-07-28T11:17:48;2.63;;;1.00;;
52948;SDS011;38812;50.942;3.644;2023-07-28T11:22:46;1.77;;;0.98;;
52948;SDS011;38812;50.942;3.644;2023-07-28T11:25:17;1.33;;;1.00;;
52948;SDS011;38812;50.942;3.644;2023-07-28T11:27:45;2.70;;;1.10;;
52948;SDS011;38812;50.942;3.644;2023-07-28T11:30:11;2.13;;;1.27;;
52948;SDS011;38812;50.942;3.644;2023-07-28T11:32:37;2.22;;;1.10;;
52948;SDS011;38812;50.942;3.644;2023-07-28T11:35:06;0.80;;;0.80;;
52948;SDS011;38812;50.942;3.644;2023-07-28T11:37:34;2.15;;;0.93;;
52948;SDS011;38812;50.942;3.644;2023-07-28T11:40:04;3.17;;;0.90;;
52948;SDS011;38812;50.942;3.644;2023-07-28T11:42:45;2.90;;;0.85;;
52948;SDS011;38812;50.942;3.644;2023-07-28T11:45:14;2.15;;;1.05;;
52948;SDS011;38812;50.942;3.644;2023-07-28T11:50:36;1.67;;;0.95;;
52948;SDS011;38812;50.942;3.644;2023-07-28T11:53:03;4.78;;;0.95;;
52948;SDS011;38812;50.942;3.644;2023-07-28T11:55:29;4.18;;;0.75;;
52948;SDS011;38812;50.942;3.644;2023-07-28T11:57:54;1.98;;;1.10;;
52948;SDS011;38812;50.942;3.644;2023-07-28T12:00:29;2.28;;;0.82;;
52948;SDS011;38812;50.942;3.644;2023-07-28T12:03:08;4.30;;;0.85;;
52948;SDS011;38812;50.942;3.644;2023-07-28T12:05:35;1.02;;;0.80;;
52948;SDS011;38812;50.942;3.644;2023-07-28T12:08:01;1.73;;;1.00;;
52948;SDS011;38812;50.942;3.644;2023-07-28T12:10:28;5.15;;;0.80;;
52948;SDS011;38812;50.942;3.644;2023-07-28T12:12:54;2.17;;;0.98;;
52948;SDS011;38812;50.942;3.644;2023-07-28T12:15:23;4.72;;;1.00;;
52948;SDS011;38812;50.942;3.644;2023-07-28T12:20:40;2.55;;;0.95;;
52948;SDS011;38812;50.942;3.644;2023-07-28T12:23:07;1.00;;;0.90;;
52948;SDS011;38812;50.942;3.644;2023-07-28T12:25:33;1.63;;;0.90;;
52948;SDS011;38812;50.942;3.644;2023-07-28T12:28:01;1.33;;;0.70;;
52948;SDS011;38812;50.942;3.644;2023-07-28T12:30:26;1.65;;;0.90;;
52948;SDS011;38812;50.942;3.644;2023-07-28T12:32:52;5.82;;;1.05;;
52948;SDS011;38812;50.942;3.644;2023-07-28T12:35:17;0.80;;;0.80;;
52948;SDS011;38812;50.942;3.644;2023-07-28T12:37:43;1.85;;;1.50;;
52948;SDS011;38812;50.942;3.644;2023-07-28T12:40:09;1.00;;;0.88;;
52948;SDS011;38812;50.942;3.644;2023-07-28T12:42:35;1.25;;;0.88;;
52948;SDS011;38812;50.942;3.644;2023-07-28T12:45:01;1.20;;;0.98;;
52948;SDS011;38812;50.942;3.644;2023-07-28T12:47:26;2.20;;;0.95;;
52948;SDS011;38812;50.942;3.644;2023-07-28T12:49:52;4.18;;;1.30;;
52948;SDS011;38812;50.942;3.644;2023-07-28T12:52:18;2.63;;;0.85;;
52948;SDS011;38812;50.942;3.644;2023-07-28T12:54:43;3.40;;;1.30;;
52948;SDS011;38812;50.942;3.644;2023-07-28T12:57:09;2.10;;;0.93;;
52948;SDS011;38812;50.942;3.644;2023-07-28T12:59:37;1.70;;;1.20;;
52948;SDS011;38812;50.942;3.644;2023-07-28T13:02:03;2.47;;;0.90;;
52948;SDS011;38812;50.942;3.644;2023-07-28T13:04:28;1.65;;;1.13;;
52948;SDS011;38812;50.942;3.644;2023-07-28T13:06:54;2.60;;;1.00;;
52948;SDS011;38812;50.942;3.644;2023-07-28T13:09:19;1.67;;;0.90;;
52948;SDS011;38812;50.942;3.644;2023-07-28T13:11:45;3.40;;;1.27;;
52948;SDS011;38812;50.942;3.644;2023-07-28T13:14:10;3.58;;;1.20;;
52948;SDS011;38812;50.942;3.644;2023-07-28T13:16:36;2.33;;;1.48;;
52948;SDS011;38812;50.942;3.644;2023-07-28T13:19:03;1.38;;;1.08;;
52948;SDS011;38812;50.942;3.644;2023-07-28T13:21:29;1.88;;;1.58;;
52948;SDS011;38812;50.942;3.644;2023-07-28T13:23:54;4.50;;;1.10;;
52948;SDS011;38812;50.942;3.644;2023-07-28T13:26:19;1.65;;;1.10;;
52948;SDS011;38812;50.942;3.644;2023-07-28T13:28:45;1.73;;;0.82;;
52948;SDS011;38812;50.942;3.644;2023-07-28T13:31:15;2.20;;;1.40;;
52948;SDS011;38812;50.942;3.644;2023-07-28T13:33:44;2.17;;;1.00;;
52948;SDS011;38812;50.942;3.644;2023-07-28T13:36:12;2.50;;;1.35;;
52948;SDS011;38812;50.942;3.644;2023-07-28T13:38:37;2.85;;;1.00;;
52948;SDS011;38812;50.942;3.644;2023-07-28T13:41:04;1.50;;;1.23;;
52948;SDS011;38812;50.942;3.644;2023-07-28T13:43:33;2.90;;;1.15;;
52948;SDS011;38812;50.942;3.644;2023-07-28T13:46:05;1.35;;;1.25;;
52948;SDS011;38812;50.942;3.644;2023-07-28T13:48:31;1.00;;;0.80;;
52948;SDS011;38812;50.942;3.644;2023-07-28T13:50:57;3.33;;;1.40;;
52948;SDS011;38812;50.942;3.644;2023-07-28T13:53:22;1.35;;;1.05;;
52948;SDS011;38812;50.942;3.644;2023-07-28T13:55:48;1.88;;;1.23;;
52948;SDS011;38812;50.942;3.644;2023-07-28T13:58:14;2.33;;;1.52;;
52948;SDS011;38812;50.942;3.644;2023-07-28T14:00:39;4.82;;;1.15;;
52948;SDS011;38812;50.942;3.644;2023-07-28T14:03:05;1.85;;;1.20;;
52948;SDS011;38812;50.942;3.644;2023-07-28T14:05:30;3.65;;;1.20;;
52948;SDS011;38812;50.942;3.644;2023-07-28T14:07:55;1.20;;;1.10;;
52948;SDS011;38812;50.942;3.644;2023-07-28T14:10:21;1.25;;;1.15;;
52948;SDS011;38812;50.942;3.644;2023-07-28T14:12:46;3.85;;;1.52;;
52948;SDS011;38812;50.942;3.644;2023-07-28T14:15:11;2.60;;;1.25;;
52948;SDS011;38812;50.942;3.644;2023-07-28T14:17:37;4.20;;;1.20;;
52948;SDS011;38812;50.942;3.644;2023-07-28T14:20:02;1.73;;;1.23;;
52948;SDS011;38812;50.942;3.644;2023-07-28T14:22:28;1.92;;;1.58;;
52948;SDS011;38812;50.942;3.644;2023-07-28T14:24:53;3.92;;;1.05;;
52948;SDS011;38812;50.942;3.644;2023-07-28T14:27:19;3.67;;;1.30;;
52948;SDS011;38812;50.942;3.644;2023-07-28T14:29:44;7.75;;;2.17;;
52948;SDS011;38812;50.942;3.644;2023-07-28T14:32:10;2.35;;;1.15;;
52948;SDS011;38812;50.942;3.644;2023-07-28T14:34:35;2.40;;;1.20;;
52948;SDS011;38812;50.942;3.644;2023-07-28T14:37:02;1.20;;;1.08;;
52948;SDS011;38812;50.942;3.644;2023-07-28T14:39:32;2.38;;;1.17;;
52948;SDS011;38812;50.942;3.644;2023-07-28T14:41:58;2.50;;;1.35;;
52948;SDS011;38812;50.942;3.644;2023-07-28T14:44:23;1.33;;;1.00;;
52948;SDS011;38812;50.942;3.644;2023-07-28T14:46:48;1.55;;;1.10;;
52948;SDS011;38812;50.942;3.644;2023-07-28T14:49:14;1.58;;;1.10;;
52948;SDS011;38812;50.942;3.644;2023-07-28T14:51:39;2.22;;;1.00;;
52948;SDS011;38812;50.942;3.644;2023-07-28T14:54:05;3.17;;;1.60;;
52948;SDS011;38812;50.942;3.644;2023-07-28T14:56:30;0.98;;;0.98;;